createdAt,value
2022-09-21T00:00:53.387Z,12.21
2022-09-21T00:03:19.933Z,12.19
2022-09-21T00:05:46.325Z,12.12
2022-09-21T00:08:14.048Z,12.09
2022-09-21T00:10:40.874Z,12.06
2022-09-21T00:13:08.884Z,12.07
2022-09-21T00:15:35.450Z,12.04
2022-09-21T00:18:02.977Z,12.12
2022-09-21T00:20:29.356Z,12.09
2022-09-21T00:22:55.732Z,11.98
2022-09-21T00:25:22.065Z,11.97
2022-09-21T00:27:51.172Z,11.94
2022-09-21T00:30:18.183Z,11.91
2022-09-21T00:32:44.561Z,11.98
2022-09-21T00:35:10.977Z,12.09
2022-09-21T00:37:37.418Z,12.04
2022-09-21T00:40:04.771Z,11.99
2022-09-21T00:42:33.501Z,11.89
2022-09-21T00:45:00.784Z,11.84
2022-09-21T00:47:40.545Z,11.85
2022-09-21T00:50:11.596Z,11.77
2022-09-21T00:52:41.538Z,11.90
2022-09-21T00:55:15.656Z,11.89
2022-09-21T00:57:43.167Z,11.80
2022-09-21T01:00:10.890Z,11.69
2022-09-21T01:02:38.432Z,11.55
2022-09-21T01:05:07.830Z,11.46
2022-09-21T01:07:37.860Z,11.46
2022-09-21T01:10:09.298Z,11.44
2022-09-21T01:12:38.618Z,11.40
2022-09-21T01:15:55.972Z,11.43
2022-09-21T01:18:31.929Z,11.42
2022-09-21T01:21:27.823Z,11.40
2022-09-21T01:24:12.693Z,11.34
2022-09-21T01:27:16.806Z,11.33
2022-09-21T01:29:44.966Z,11.32
2022-09-21T01:32:28.945Z,11.29
2022-09-21T01:35:03.588Z,11.16
2022-09-21T01:37:37.871Z,11.28
2022-09-21T01:40:11.405Z,11.21
2022-09-21T01:42:41.206Z,10.90
2022-09-21T01:45:10.954Z,11.24
2022-09-21T01:47:41.679Z,11.07
2022-09-21T01:50:10.518Z,11.30
2022-09-21T01:52:55.719Z,11.50
2022-09-21T01:55:30.703Z,11.38
2022-09-21T01:58:12.074Z,11.23
2022-09-21T02:00:40.455Z,11.22
2022-09-21T02:03:15.905Z,11.19
2022-09-21T02:05:42.840Z,11.19
2022-09-21T02:08:10.564Z,11.19
2022-09-21T02:10:45.544Z,11.26
2022-09-21T02:13:14.763Z,11.28
2022-09-21T02:16:07.577Z,11.17
2022-09-21T02:18:58.447Z,11.04
2022-09-21T02:21:34.256Z,11.09
2022-09-21T02:24:37.610Z,11.21
2022-09-21T02:27:07.961Z,11.17
2022-09-21T02:29:53.690Z,11.18
2022-09-21T02:32:33.886Z,11.04
2022-09-21T02:35:16.344Z,10.99
2022-09-21T02:37:58.973Z,11.00
2022-09-21T02:40:30.729Z,11.09
2022-09-21T02:43:02.279Z,10.78
2022-09-21T02:45:35.255Z,10.73
2022-09-21T02:48:09.988Z,10.67
2022-09-21T02:50:42.560Z,10.62
2022-09-21T02:53:11.483Z,10.74
2022-09-21T02:55:39.535Z,10.79
2022-09-21T02:58:10.314Z,10.65
2022-09-21T03:00:37.254Z,10.54
2022-09-21T03:03:22.088Z,10.50
2022-09-21T03:05:50.982Z,10.50
2022-09-21T03:08:18.205Z,10.49
2022-09-21T03:10:46.211Z,10.58
2022-09-21T03:13:13.452Z,10.63
2022-09-21T03:15:40.915Z,10.43
2022-09-21T03:18:09.553Z,10.42
2022-09-21T03:20:37.050Z,10.25
2022-09-21T03:23:04.069Z,10.17
2022-09-21T03:25:31.020Z,10.19
2022-09-21T03:27:58.532Z,10.25
2022-09-21T03:30:26.237Z,10.19
2022-09-21T03:32:53.816Z,10.21
2022-09-21T03:35:22.309Z,10.03
2022-09-21T03:37:50.011Z,9.99
2022-09-21T03:40:17.770Z,9.94
2022-09-21T03:42:44.323Z,9.93
2022-09-21T03:45:12.275Z,9.94
2022-09-21T03:47:39.649Z,9.90
2022-09-21T03:50:09.941Z,9.86
2022-09-21T03:52:37.857Z,9.81
2022-09-21T03:55:06.561Z,9.81
2022-09-21T03:57:34.455Z,9.82
2022-09-21T04:00:03.774Z,9.93
2022-09-21T04:02:30.395Z,10.05
2022-09-21T04:04:56.822Z,10.00
2022-09-21T04:07:23.307Z,9.94
2022-09-21T04:09:49.781Z,9.98
2022-09-21T04:12:16.142Z,10.00
2022-09-21T04:14:42.503Z,9.99
2022-09-21T04:17:09.107Z,10.03
2022-09-21T04:19:35.516Z,10.02
2022-09-21T04:22:01.902Z,9.97
2022-09-21T04:24:28.235Z,9.88
2022-09-21T04:26:54.601Z,9.86
2022-09-21T04:29:21.430Z,9.91
2022-09-21T04:31:47.915Z,9.93
2022-09-21T04:34:14.510Z,9.79
2022-09-21T04:36:40.920Z,9.95
2022-09-21T04:39:07.384Z,9.90
2022-09-21T04:41:33.740Z,9.90
2022-09-21T04:44:00.213Z,9.97
2022-09-21T04:46:26.719Z,10.05
2022-09-21T04:48:53.195Z,10.09
2022-09-21T04:51:19.560Z,10.05
2022-09-21T04:53:46.009Z,10.10
2022-09-21T04:56:14.860Z,10.15
2022-09-21T04:58:41.522Z,10.14
2022-09-21T05:01:10.113Z,10.06
2022-09-21T05:03:36.627Z,9.99
2022-09-21T05:06:03.945Z,9.96
2022-09-21T05:08:49.125Z,9.95
2022-09-21T05:11:20.632Z,9.96
2022-09-21T05:13:47.523Z,9.93
2022-09-21T05:16:14.914Z,9.99
2022-09-21T05:18:41.384Z,10.16
2022-09-21T05:21:07.808Z,10.24
2022-09-21T05:23:34.193Z,10.12
2022-09-21T05:26:00.803Z,10.03
2022-09-21T05:28:27.748Z,10.03
2022-09-21T05:31:16.700Z,10.04
2022-09-21T05:33:59.424Z,10.20
2022-09-21T05:36:48.529Z,10.18
2022-09-21T05:39:15.183Z,10.08
2022-09-21T05:41:41.842Z,10.24
2022-09-21T05:44:13.666Z,10.30
2022-09-21T05:46:54.057Z,10.36
2022-09-21T05:49:34.262Z,10.45
2022-09-21T05:52:19.643Z,10.43
2022-09-21T05:54:54.777Z,10.47
2022-09-21T05:57:45.083Z,10.39
2022-09-21T06:00:19.602Z,10.42
2022-09-21T06:03:17.839Z,10.38
2022-09-21T06:05:44.844Z,10.40
2022-09-21T06:08:11.239Z,10.36
2022-09-21T06:10:37.635Z,10.43
2022-09-21T06:13:04.096Z,10.52
2022-09-21T06:15:30.688Z,10.56
2022-09-21T06:17:58.242Z,10.60
2022-09-21T06:20:25.136Z,10.64
2022-09-21T06:22:51.578Z,10.64
2022-09-21T06:25:20.122Z,10.70
2022-09-21T06:27:46.659Z,10.79
2022-09-21T06:30:13.153Z,10.80
2022-09-21T06:32:39.583Z,10.92
2022-09-21T06:35:06.399Z,10.94
2022-09-21T06:37:32.965Z,10.97
2022-09-21T06:39:59.422Z,10.99
2022-09-21T06:42:27.497Z,11.00
2022-09-21T06:44:53.846Z,11.09
2022-09-21T06:47:20.196Z,11.17
2022-09-21T06:49:46.561Z,11.23
2022-09-21T06:52:12.928Z,11.32
2022-09-21T06:54:40.920Z,11.35
2022-09-21T06:57:07.830Z,11.43
2022-09-21T06:59:34.199Z,11.51
2022-09-21T07:02:00.744Z,11.59
2022-09-21T07:04:28.978Z,11.64
2022-09-21T07:06:55.643Z,11.73
2022-09-21T07:12:08.519Z,11.93
2022-09-21T07:14:34.958Z,12.01
2022-09-21T07:17:01.857Z,12.10
2022-09-21T07:19:28.719Z,12.18
2022-09-21T07:21:55.835Z,12.21
2022-09-21T07:24:22.347Z,12.41
2022-09-21T07:26:49.368Z,12.51
2022-09-21T07:29:15.822Z,12.60
2022-09-21T07:31:45.334Z,12.75
2022-09-21T07:34:11.801Z,12.87
2022-09-21T07:36:38.285Z,12.98
2022-09-21T07:39:05.035Z,13.10
2022-09-21T07:41:31.589Z,13.10
2022-09-21T07:43:57.987Z,13.17
2022-09-21T07:46:25.050Z,13.23
2022-09-21T07:48:56.727Z,13.36
2022-09-21T07:51:24.232Z,13.34
2022-09-21T07:53:56.751Z,13.25
2022-09-21T07:56:23.301Z,13.23
2022-09-21T07:59:08.086Z,13.18
2022-09-21T08:01:39.892Z,13.21
2022-09-21T08:04:09.318Z,13.25
2022-09-21T08:06:39.813Z,13.30
2022-09-21T08:09:06.843Z,13.38
2022-09-21T08:11:33.414Z,13.34
2022-09-21T08:14:02.172Z,13.42
2022-09-21T08:16:30.336Z,13.71
2022-09-21T08:18:57.396Z,13.84
2022-09-21T08:21:23.766Z,13.88
2022-09-21T08:23:50.234Z,13.91
2022-09-21T08:26:19.407Z,14.00
2022-09-21T08:28:51.193Z,14.27
2022-09-21T08:31:20.503Z,14.90
2022-09-21T08:33:48.354Z,15.62
2022-09-21T08:36:14.748Z,16.15
2022-09-21T08:38:41.538Z,16.26
2022-09-21T08:41:34.229Z,16.19
2022-09-21T08:44:13.779Z,16.11
2022-09-21T08:46:42.331Z,15.94
2022-09-21T08:49:16.421Z,16.29
2022-09-21T08:51:53.173Z,16.50
2022-09-21T08:54:27.883Z,16.77
2022-09-21T08:57:05.051Z,16.82
2022-09-21T08:59:32.180Z,16.80
2022-09-21T09:02:20.882Z,16.59
2022-09-21T09:05:06.514Z,16.82
2022-09-21T09:08:04.471Z,17.66
2022-09-21T09:10:41.402Z,18.06
2022-09-21T09:13:34.875Z,18.52
2022-09-21T09:16:35.117Z,18.47
2022-09-21T09:19:24.311Z,18.67
2022-09-21T09:21:51.648Z,19.02
2022-09-21T09:24:48.895Z,19.67
2022-09-21T09:27:28.035Z,20.00
2022-09-21T09:30:03.592Z,20.36
2022-09-21T09:32:46.978Z,20.49
2022-09-21T09:35:27.724Z,21.11
2022-09-21T09:38:09.748Z,21.01
2022-09-21T09:40:54.914Z,21.08
2022-09-21T09:43:36.299Z,21.02
2022-09-21T09:46:17.859Z,21.58
2022-09-21T09:49:07.211Z,21.79
2022-09-21T09:51:36.668Z,21.79
2022-09-21T09:54:06.939Z,21.67
2022-09-21T09:56:36.100Z,21.41
2022-09-21T09:59:09.806Z,22.10
2022-09-21T10:01:46.575Z,22.09
2022-09-21T10:04:17.962Z,22.24
2022-09-21T10:06:46.755Z,22.73
2022-09-21T10:09:27.379Z,22.79
2022-09-21T10:11:58.371Z,22.75
2022-09-21T10:14:27.129Z,22.34
2022-09-21T10:16:55.756Z,22.51
2022-09-21T10:19:25.635Z,22.93
2022-09-21T10:21:58.338Z,22.95
2022-09-21T10:24:40.622Z,22.64
2022-09-21T10:27:14.772Z,22.34
2022-09-21T10:29:44.045Z,21.91
2022-09-21T10:32:14.877Z,21.36
2022-09-21T10:35:00.795Z,21.04
2022-09-21T10:37:37.218Z,20.42
2022-09-21T10:40:22.193Z,20.59
2022-09-21T10:42:50.956Z,20.49
2022-09-21T10:45:20.831Z,20.56
2022-09-21T10:47:56.753Z,20.22
2022-09-21T10:50:27.243Z,20.62
2022-09-21T10:53:00.816Z,19.98
2022-09-21T10:55:30.089Z,19.53
2022-09-21T10:57:57.937Z,19.39
2022-09-21T11:00:24.376Z,19.35
2022-09-21T11:02:54.940Z,19.35
2022-09-21T11:05:34.577Z,19.20
2022-09-21T11:08:17.569Z,19.44
2022-09-21T11:10:48.321Z,19.45
2022-09-21T11:13:39.637Z,19.59
2022-09-21T11:16:21.275Z,19.38
2022-09-21T11:19:18.511Z,19.29
2022-09-21T11:21:55.496Z,19.06
2022-09-21T11:24:49.164Z,19.30
2022-09-21T11:27:22.646Z,19.40
2022-09-21T11:30:02.986Z,18.99
2022-09-21T11:32:47.563Z,19.13
2022-09-21T11:35:38.801Z,18.79
2022-09-21T11:38:09.905Z,18.75
2022-09-21T11:41:01.435Z,18.59
2022-09-21T11:43:27.814Z,18.38
2022-09-21T11:45:57.560Z,18.10
2022-09-21T11:48:48.326Z,18.11
2022-09-21T11:51:24.098Z,18.11
2022-09-21T11:54:20.452Z,17.74
2022-09-21T11:56:58.456Z,17.95
2022-09-21T11:59:45.272Z,18.03
2022-09-21T12:02:52.969Z,18.36
2022-09-21T12:05:26.882Z,18.37
2022-09-21T12:08:02.222Z,18.60
2022-09-21T12:10:49.435Z,18.39
2022-09-21T12:13:26.758Z,18.20
2022-09-21T12:16:05.303Z,18.23
2022-09-21T12:19:04.585Z,18.23
2022-09-21T12:21:36.761Z,18.36
2022-09-21T12:24:15.794Z,18.39
2022-09-21T12:26:49.040Z,18.15
2022-09-21T12:29:31.221Z,18.14
2022-09-21T12:32:18.490Z,17.93
2022-09-21T12:34:51.275Z,18.00
2022-09-21T12:37:31.724Z,17.97
2022-09-21T12:40:19.272Z,17.87
2022-09-21T12:42:54.438Z,17.91
2022-09-21T12:45:23.641Z,17.90
2022-09-21T12:48:06.175Z,17.77
2022-09-21T12:50:41.112Z,17.69
2022-09-21T12:53:17.204Z,17.46
2022-09-21T12:56:01.483Z,17.48
2022-09-21T12:58:50.713Z,17.47
2022-09-21T13:01:26.588Z,17.64
2022-09-21T13:04:12.332Z,17.70
2022-09-21T13:07:15.002Z,17.71
2022-09-21T13:09:44.859Z,17.67
2022-09-21T13:12:19.114Z,17.32
2022-09-21T13:14:48.750Z,17.12
2022-09-21T13:17:24.541Z,16.94
2022-09-21T13:20:01.058Z,17.22
2022-09-21T13:22:32.483Z,17.11
2022-09-21T13:25:08.825Z,17.28
2022-09-21T13:28:16.821Z,17.31
2022-09-21T13:30:48.924Z,17.44
2022-09-21T13:33:18.141Z,17.46
2022-09-21T13:35:50.825Z,17.43
2022-09-21T13:38:34.066Z,17.46
2022-09-21T13:41:31.506Z,17.56
2022-09-21T13:44:28.039Z,17.73
2022-09-21T13:46:56.180Z,17.77
2022-09-21T13:49:39.194Z,17.78
2022-09-21T13:52:28.669Z,17.79
2022-09-21T13:55:01.799Z,17.86
2022-09-21T13:57:48.864Z,17.86
2022-09-21T14:00:19.904Z,17.88
2022-09-21T14:02:49.344Z,17.83
2022-09-21T14:05:38.224Z,17.80
2022-09-21T14:08:13.506Z,17.68
2022-09-21T14:10:53.107Z,17.42
2022-09-21T14:13:49.526Z,17.06
2022-09-21T14:16:36.537Z,17.07
2022-09-21T14:19:17.081Z,16.92
2022-09-21T14:22:05.421Z,16.93
2022-09-21T14:24:41.528Z,16.85
2022-09-21T14:27:27.099Z,16.78
2022-09-21T14:30:00.324Z,16.74
2022-09-21T14:32:35.432Z,16.67
2022-09-21T14:35:11.153Z,16.69
2022-09-21T14:37:43.156Z,16.53
2022-09-21T14:40:21.261Z,16.67
2022-09-21T14:42:50.040Z,16.69
2022-09-21T14:45:18.793Z,16.75
2022-09-21T14:48:16.804Z,16.73
2022-09-21T14:50:55.717Z,16.75
2022-09-21T14:53:55.802Z,16.61
2022-09-21T14:56:40.980Z,16.70
2022-09-21T14:59:28.585Z,16.62
2022-09-21T15:02:13.481Z,16.62
2022-09-21T15:05:12.288Z,16.61
2022-09-21T15:08:38.773Z,16.59
2022-09-21T15:11:28.267Z,16.57
2022-09-21T15:14:30.220Z,16.58
2022-09-21T15:16:56.717Z,16.57
2022-09-21T15:19:35.266Z,16.59
2022-09-21T15:22:20.982Z,16.48
2022-09-21T15:24:59.198Z,16.50
2022-09-21T15:27:33.106Z,16.50
2022-09-21T15:30:02.860Z,16.51
2022-09-21T15:32:36.963Z,16.64
2022-09-21T15:35:17.991Z,16.65
2022-09-21T15:37:45.805Z,16.58
2022-09-21T15:40:20.554Z,16.46
2022-09-21T15:43:19.835Z,16.51
2022-09-21T15:45:52.156Z,16.54
2022-09-21T15:48:19.842Z,16.61
2022-09-21T15:50:52.948Z,16.67
2022-09-21T15:53:25.869Z,16.66
2022-09-21T15:55:53.001Z,16.55
2022-09-21T15:58:37.306Z,16.54
2022-09-21T16:01:11.373Z,16.64
2022-09-21T16:03:39.856Z,16.62
2022-09-21T16:06:21.290Z,16.53
2022-09-21T16:08:47.787Z,16.48
2022-09-21T16:11:26.307Z,16.46
2022-09-21T16:14:38.376Z,16.44
2022-09-21T16:17:13.513Z,16.41
2022-09-21T16:19:50.731Z,16.37
2022-09-21T16:22:30.300Z,16.35
2022-09-21T16:25:01.051Z,16.32
2022-09-21T16:27:29.959Z,16.27
2022-09-21T16:29:57.760Z,16.24
2022-09-21T16:32:27.360Z,16.19
2022-09-21T16:35:28.569Z,16.13
2022-09-21T16:37:58.931Z,16.09
2022-09-21T16:40:29.274Z,16.00
2022-09-21T16:42:56.664Z,16.00
2022-09-21T16:45:27.144Z,15.95
2022-09-21T16:47:54.069Z,15.92
2022-09-21T16:50:20.529Z,15.89
2022-09-21T16:52:46.974Z,15.82
2022-09-21T16:55:15.515Z,15.80
2022-09-21T16:57:42.754Z,15.78
2022-09-21T17:00:14.160Z,15.76
2022-09-21T17:02:42.729Z,15.77
2022-09-21T17:05:09.731Z,15.77
2022-09-21T17:07:36.325Z,15.71
2022-09-21T17:10:12.885Z,15.55
2022-09-21T17:12:41.874Z,15.59
2022-09-21T17:15:12.574Z,15.50
2022-09-21T17:17:39.080Z,15.43
2022-09-21T17:20:34.590Z,15.41
2022-09-21T17:23:04.241Z,15.26
2022-09-21T17:25:32.874Z,15.20
2022-09-21T17:28:00.017Z,15.13
2022-09-21T17:30:27.038Z,15.08
2022-09-21T17:32:54.634Z,15.09
2022-09-21T17:35:38.083Z,15.07
2022-09-21T17:38:05.801Z,15.04
2022-09-21T17:40:32.772Z,14.98
2022-09-21T17:43:28.473Z,14.82
2022-09-21T17:46:00.862Z,14.87
2022-09-21T17:48:31.805Z,14.77
2022-09-21T17:51:00.485Z,14.84
2022-09-21T17:53:40.314Z,14.79
2022-09-21T17:56:28.077Z,14.66
2022-09-21T17:58:57.889Z,14.62
2022-09-21T18:01:37.004Z,14.54
2022-09-21T18:04:05.048Z,14.55
2022-09-21T18:06:31.694Z,14.45
2022-09-21T18:08:58.637Z,14.35
2022-09-21T18:11:42.259Z,14.24
2022-09-21T18:14:11.723Z,14.13
2022-09-21T18:17:01.345Z,14.04
2022-09-21T18:19:45.774Z,13.89
2022-09-21T18:22:16.529Z,13.69
2022-09-21T18:24:43.522Z,13.59
2022-09-21T18:27:11.975Z,13.72
2022-09-21T18:29:41.403Z,13.63
2022-09-21T18:32:39.689Z,13.61
2022-09-21T18:35:15.776Z,13.51
2022-09-21T18:38:04.522Z,13.37
2022-09-21T18:40:46.415Z,13.42
2022-09-21T18:43:39.762Z,13.34
2022-09-21T18:46:21.275Z,13.38
2022-09-21T18:48:53.102Z,13.21
2022-09-21T18:51:27.167Z,13.22
2022-09-21T18:53:58.082Z,13.13
2022-09-21T18:56:27.824Z,13.09
2022-09-21T18:58:54.764Z,13.00
2022-09-21T19:01:22.742Z,13.06
2022-09-21T19:03:49.843Z,13.02
2022-09-21T19:06:38.472Z,12.94
2022-09-21T19:09:19.139Z,12.84
2022-09-21T19:12:28.169Z,12.97
2022-09-21T19:15:58.598Z,12.88
2022-09-21T19:18:27.812Z,12.73
2022-09-21T19:21:07.484Z,12.55
2022-09-21T19:23:44.091Z,12.55
2022-09-21T19:26:17.350Z,12.42
2022-09-21T19:28:46.650Z,12.42
2022-09-21T19:31:16.771Z,12.49
2022-09-21T19:33:50.351Z,12.43
2022-09-21T19:36:18.605Z,12.40
2022-09-21T19:38:45.636Z,12.41
2022-09-21T19:41:31.123Z,12.19
2022-09-21T19:44:09.934Z,12.23
2022-09-21T19:47:00.592Z,12.32
2022-09-21T19:49:36.645Z,12.30
2022-09-21T19:52:05.631Z,12.18
2022-09-21T19:54:50.974Z,12.16
2022-09-21T19:57:47.024Z,12.06
2022-09-21T20:00:19.164Z,12.11
2022-09-21T20:03:11.048Z,12.08
2022-09-21T20:05:50.432Z,12.02
2022-09-21T20:08:35.629Z,12.11
2022-09-21T20:11:17.565Z,12.13
2022-09-21T20:13:46.959Z,12.08
2022-09-21T20:16:35.281Z,11.95
2022-09-21T20:19:04.762Z,11.96
2022-09-21T20:21:39.876Z,11.75
2022-09-21T20:24:25.055Z,11.73
2022-09-21T20:26:51.882Z,11.88
2022-09-21T20:29:19.746Z,11.88
2022-09-21T20:31:48.833Z,11.81
2022-09-21T20:34:15.581Z,11.73
2022-09-21T20:36:42.090Z,11.59
2022-09-21T20:39:08.585Z,11.44
2022-09-21T20:41:34.986Z,11.23
2022-09-21T20:44:02.513Z,11.21
2022-09-21T20:46:29.043Z,11.24
2022-09-21T20:49:05.287Z,11.19
2022-09-21T20:51:33.937Z,11.27
2022-09-21T20:54:04.058Z,11.17
2022-09-21T20:56:31.077Z,11.00
2022-09-21T20:58:57.934Z,10.96
2022-09-21T21:01:24.933Z,10.81
2022-09-21T21:03:51.574Z,10.82
2022-09-21T21:06:18.730Z,10.94
2022-09-21T21:08:45.361Z,10.93
2022-09-21T21:11:13.058Z,11.11
2022-09-21T21:13:39.467Z,11.00
2022-09-21T21:16:11.582Z,11.05
2022-09-21T21:18:40.143Z,10.91
2022-09-21T21:21:06.490Z,10.88
2022-09-21T21:23:53.175Z,10.94
2022-09-21T21:26:19.639Z,10.96
2022-09-21T21:28:46.028Z,11.03
2022-09-21T21:31:12.587Z,10.95
2022-09-21T21:33:39.947Z,10.82
2022-09-21T21:36:08.118Z,10.72
2022-09-21T21:38:38.264Z,10.60
2022-09-21T21:41:04.970Z,10.62
2022-09-21T21:43:36.016Z,10.63
2022-09-21T21:46:02.965Z,10.69
2022-09-21T21:48:29.606Z,10.75
2022-09-21T21:51:03.422Z,10.65
2022-09-21T21:53:34.164Z,10.78
2022-09-21T21:56:08.426Z,10.69
2022-09-21T21:58:35.470Z,10.59
2022-09-21T22:01:13.497Z,10.64
2022-09-21T22:03:40.858Z,10.71
2022-09-21T22:06:09.892Z,10.58
2022-09-21T22:08:37.795Z,10.38
2022-09-21T22:11:05.258Z,10.39
2022-09-21T22:13:36.726Z,10.27
2022-09-21T22:16:14.747Z,10.21
2022-09-21T22:18:42.105Z,10.22
2022-09-21T22:21:12.203Z,10.37
2022-09-21T22:23:39.464Z,10.32
2022-09-21T22:26:11.782Z,10.27
2022-09-21T22:28:40.329Z,10.26
2022-09-21T22:31:20.085Z,10.23
2022-09-21T22:33:47.862Z,10.28
2022-09-21T22:36:16.966Z,10.35
2022-09-21T22:38:43.904Z,10.30
2022-09-21T22:41:13.155Z,10.01
2022-09-21T22:43:40.392Z,9.99
2022-09-21T22:46:07.647Z,10.16
2022-09-21T22:48:35.208Z,10.01
2022-09-21T22:51:02.400Z,9.96
2022-09-21T22:53:29.672Z,9.98
2022-09-21T22:56:02.517Z,9.89
2022-09-21T22:58:29.587Z,9.84
2022-09-21T23:01:13.857Z,9.87
2022-09-21T23:03:41.933Z,9.91
2022-09-21T23:06:10.761Z,9.93
2022-09-21T23:08:37.749Z,9.86
2022-09-21T23:11:12.391Z,9.81
2022-09-21T23:13:39.526Z,9.73
2022-09-21T23:16:08.701Z,9.72
2022-09-21T23:18:35.420Z,9.78
2022-09-21T23:21:05.349Z,9.67
2022-09-21T23:23:33.029Z,9.54
2022-09-21T23:26:07.486Z,9.54
2022-09-21T23:28:35.051Z,9.64
2022-09-21T23:31:04.148Z,9.74
2022-09-21T23:33:51.576Z,9.71
2022-09-21T23:36:21.038Z,9.78
2022-09-21T23:38:50.000Z,9.54
2022-09-21T23:41:19.206Z,9.49
2022-09-21T23:43:46.849Z,9.48
2022-09-21T23:46:16.217Z,9.41
2022-09-21T23:48:43.499Z,9.39
2022-09-21T23:51:10.533Z,9.34
2022-09-21T23:53:37.610Z,9.33
2022-09-21T23:56:05.494Z,9.27
2022-09-21T23:58:32.004Z,9.28
